Time;durP1;ratioP1;P1;durP2;ratioP2;P2;SDS_P1;SDS_P2;PMS_P1;PMS_P2;Temp;Humidity;BMP_temperature;BMP_pressure;BME280_temperature;BME280_humidity;BME280_pressure;Samples;Min_cycle;Max_cycle;Signal;HPM_P1;HPM_P2
2024/01/07 00:00:36;;;;;;;14.65;11.63;;;;;;;;;;5074715;28;20047;-72
2024/01/07 00:03:02;;;;;;;15.60;11.63;;;;;;;;;;5074427;28;20501;-72
2024/01/07 00:05:28;;;;;;;15.43;11.57;;;;;;;;;;5074603;28;20041;-72
2024/01/07 00:07:54;;;;;;;13.43;10.90;;;;;;;;;;5074846;28;20050;-72
2024/01/07 00:10:20;;;;;;;15.02;11.73;;;;;;;;;;5076009;28;20051;-72
2024/01/07 00:12:48;;;;;;;12.93;10.27;;;;;;;;;;5074435;28;20048;-72
2024/01/07 00:15:14;;;;;;;14.73;10.38;;;;;;;;;;5075959;28;20045;-72
2024/01/07 00:17:40;;;;;;;14.38;10.73;;;;;;;;;;5075291;28;20409;-72
2024/01/07 00:20:06;;;;;;;13.88;10.65;;;;;;;;;;5075843;28;20119;-72
2024/01/07 00:22:32;;;;;;;15.35;11.50;;;;;;;;;;5074298;28;20047;-72
2024/01/07 00:24:58;;;;;;;15.45;11.50;;;;;;;;;;5074436;28;20037;-72
2024/01/07 00:27:24;;;;;;;17.15;10.73;;;;;;;;;;5074483;28;20047;-72
2024/01/07 00:29:50;;;;;;;16.33;11.55;;;;;;;;;;5074188;28;20420;-72
2024/01/07 00:32:16;;;;;;;15.32;11.55;;;;;;;;;;5075348;28;20044;-72
2024/01/07 00:34:42;;;;;;;15.15;11.10;;;;;;;;;;5074037;28;20076;-72
2024/01/07 00:37:08;;;;;;;16.90;12.07;;;;;;;;;;5075226;28;20048;-72
2024/01/07 00:39:34;;;;;;;14.77;11.30;;;;;;;;;;5073985;28;20101;-72
2024/01/07 00:42:00;;;;;;;17.05;12.00;;;;;;;;;;5075407;28;20047;-72
2024/01/07 00:44:26;;;;;;;14.93;10.98;;;;;;;;;;5074067;28;20044;-72
2024/01/07 00:46:52;;;;;;;16.30;11.35;;;;;;;;;;5073814;28;20051;-72
2024/01/07 00:49:18;;;;;;;16.45;11.60;;;;;;;;;;5073781;28;20075;-72
2024/01/07 00:51:44;;;;;;;14.27;10.93;;;;;;;;;;5075260;28;20044;-72
2024/01/07 00:54:10;;;;;;;14.55;11.45;;;;;;;;;;5075147;28;20040;-72
2024/01/07 00:56:36;;;;;;;19.17;11.73;;;;;;;;;;5075161;28;20059;-72
2024/01/07 00:59:02;;;;;;;15.00;10.18;;;;;;;;;;5074700;28;20036;-72
2024/01/07 01:01:28;;;;;;;15.10;11.10;;;;;;;;;;5073549;28;20037;-72
2024/01/07 01:03:54;;;;;;;16.02;11.48;;;;;;;;;;5074662;28;20069;-72
2024/01/07 01:06:20;;;;;;;13.13;10.05;;;;;;;;;;5073500;28;20125;-72
2024/01/07 01:08:46;;;;;;;13.40;10.43;;;;;;;;;;5073384;28;20066;-72
2024/01/07 01:11:12;;;;;;;14.00;10.50;;;;;;;;;;5073608;28;20047;-73
2024/01/07 01:13:38;;;;;;;18.48;11.45;;;;;;;;;;5073278;28;20473;-73
2024/01/07 01:16:04;;;;;;;14.48;9.95;;;;;;;;;;5073560;28;20044;-73
2024/01/07 01:18:30;;;;;;;12.88;9.88;;;;;;;;;;5074616;28;20047;-72
2024/01/07 01:20:56;;;;;;;12.10;9.60;;;;;;;;;;5074341;28;20115;-72
2024/01/07 01:23:22;;;;;;;12.65;9.98;;;;;;;;;;5074525;28;20047;-72
2024/01/07 01:25:49;;;;;;;11.95;9.88;;;;;;;;;;5073316;28;20040;-72
2024/01/07 01:28:15;;;;;;;15.93;10.18;;;;;;;;;;5073882;28;20048;-72
2024/01/07 01:30:41;;;;;;;12.70;9.88;;;;;;;;;;5073174;28;20040;-72
2024/01/07 01:33:07;;;;;;;12.73;9.63;;;;;;;;;;5074049;28;20413;-72
2024/01/07 01:35:33;;;;;;;15.82;10.40;;;;;;;;;;5072827;28;20059;-72
2024/01/07 01:37:59;;;;;;;12.80;8.88;;;;;;;;;;5072892;28;20044;-72
2024/01/07 01:40:25;;;;;;;13.60;8.82;;;;;;;;;;5073016;28;20041;-72
2024/01/07 01:42:51;;;;;;;13.05;9.43;;;;;;;;;;5074173;28;20386;-72
2024/01/07 01:45:18;;;;;;;13.18;9.25;;;;;;;;;;5074208;28;20117;-72
2024/01/07 01:47:45;;;;;;;13.35;9.50;;;;;;;;;;5072624;28;20548;-72
2024/01/07 01:50:11;;;;;;;13.82;9.23;;;;;;;;;;5072556;28;20054;-73
2024/01/07 01:52:37;;;;;;;12.10;8.85;;;;;;;;;;5073998;28;20044;-72
2024/01/07 01:55:03;;;;;;;12.70;9.88;;;;;;;;;;5074042;28;20033;-72
2024/01/07 01:57:33;;;;;;;11.90;8.95;;;;;;;;;;5072397;28;20041;-72
2024/01/07 02:00:03;;;;;;;12.40;8.55;;;;;;;;;;5072462;28;20040;-72
2024/01/07 02:02:31;;;;;;;11.60;8.93;;;;;;;;;;5072229;28;20079;-72
2024/01/07 02:04:57;;;;;;;11.80;8.50;;;;;;;;;;5073807;28;20036;-72
2024/01/07 02:07:24;;;;;;;11.07;8.55;;;;;;;;;;5072546;28;20041;-72
2024/01/07 02:09:50;;;;;;;12.60;8.65;;;;;;;;;;5073777;28;20102;-72
2024/01/07 02:12:16;;;;;;;12.43;8.23;;;;;;;;;;5073739;28;20036;-72
2024/01/07 02:14:42;;;;;;;11.10;7.70;;;;;;;;;;5073628;28;20096;-72
2024/01/07 02:17:08;;;;;;;12.70;8.68;;;;;;;;;;5073638;28;20036;-72
2024/01/07 02:19:34;;;;;;;13.45;8.40;;;;;;;;;;5072093;28;20615;-72
2024/01/07 02:22:00;;;;;;;11.23;8.13;;;;;;;;;;5072357;28;20200;-71
2024/01/07 02:24:26;;;;;;;12.52;8.15;;;;;;;;;;5073500;28;20044;-72
2024/01/07 02:26:52;;;;;;;12.18;7.63;;;;;;;;;;5072076;28;20049;-72
2024/01/07 02:29:18;;;;;;;13.23;8.70;;;;;;;;;;5073188;28;20032;-72
2024/01/07 02:31:44;;;;;;;11.05;7.90;;;;;;;;;;5071958;28;20079;-72
2024/01/07 02:34:10;;;;;;;12.77;7.53;;;;;;;;;;5071904;28;20078;-72
2024/01/07 02:36:36;;;;;;;10.88;8.48;;;;;;;;;;5071915;28;20045;-72
2024/01/07 02:39:03;;;;;;;10.60;7.80;;;;;;;;;;5071863;28;20043;-72
2024/01/07 02:41:29;;;;;;;9.93;7.60;;;;;;;;;;5071872;28;20497;-72
2024/01/07 02:43:55;;;;;;;11.13;6.95;;;;;;;;;;5073639;28;20039;-72
2024/01/07 02:46:21;;;;;;;9.70;6.80;;;;;;;;;;5073325;28;20047;-72
2024/01/07 02:48:47;;;;;;;10.80;7.10;;;;;;;;;;5071815;28;20049;-72
2024/01/07 02:51:13;;;;;;;10.68;6.97;;;;;;;;;;5071752;28;20068;-72
2024/01/07 02:53:40;;;;;;;9.98;7.15;;;;;;;;;;5071677;28;20044;-72
2024/01/07 02:56:08;;;;;;;8.43;6.30;;;;;;;;;;5071771;28;20040;-72
2024/01/07 02:58:34;;;;;;;9.13;6.35;;;;;;;;;;5071638;28;20080;-72
2024/01/07 03:01:00;;;;;;;9.35;5.97;;;;;;;;;;5071682;28;20083;-72
2024/01/07 03:03:26;;;;;;;8.25;5.85;;;;;;;;;;5071427;28;20037;-71
2024/01/07 03:05:52;;;;;;;8.73;5.80;;;;;;;;;;5071868;28;20107;-72
2024/01/07 03:08:18;;;;;;;8.55;5.75;;;;;;;;;;5071602;28;20044;-72
2024/01/07 03:10:44;;;;;;;8.60;5.28;;;;;;;;;;5071591;28;20121;-72
2024/01/07 03:13:12;;;;;;;8.98;5.85;;;;;;;;;;5073026;28;20106;-72
2024/01/07 03:15:38;;;;;;;7.93;5.82;;;;;;;;;;5073072;28;20089;-72
2024/01/07 03:18:04;;;;;;;9.88;5.75;;;;;;;;;;5072964;28;20123;-72
2024/01/07 03:20:30;;;;;;;8.80;5.25;;;;;;;;;;5073009;28;20040;-72
2024/01/07 03:22:56;;;;;;;8.95;5.65;;;;;;;;;;5072932;28;20074;-72
2024/01/07 03:25:22;;;;;;;8.65;5.63;;;;;;;;;;5072936;28;20115;-72
2024/01/07 03:27:48;;;;;;;11.60;6.20;;;;;;;;;;5071429;28;20493;-72
2024/01/07 03:30:14;;;;;;;9.27;5.28;;;;;;;;;;5071392;28;20052;-72
2024/01/07 03:32:40;;;;;;;7.93;5.53;;;;;;;;;;5071304;28;20549;-72
2024/01/07 03:35:07;;;;;;;9.93;5.20;;;;;;;;;;5071347;28;20132;-72
2024/01/07 03:37:33;;;;;;;9.40;5.40;;;;;;;;;;5071224;28;20049;-72
2024/01/07 03:39:58;;;;;;;8.13;5.03;;;;;;;;;;5071320;28;20036;-72
2024/01/07 03:42:24;;;;;;;10.50;5.25;;;;;;;;;;5071289;28;20041;-72
2024/01/07 03:44:50;;;;;;;8.50;5.32;;;;;;;;;;5072724;28;20039;-71
2024/01/07 03:47:17;;;;;;;6.68;5.13;;;;;;;;;;5072804;28;20484;-72
2024/01/07 03:49:43;;;;;;;7.82;5.35;;;;;;;;;;5071239;28;20044;-72
2024/01/07 03:52:09;;;;;;;8.55;5.70;;;;;;;;;;5072908;28;20040;-72
2024/01/07 03:54:35;;;;;;;9.00;5.50;;;;;;;;;;5074743;28;20520;-72
2024/01/07 03:57:00;;;;;;;7.72;5.35;;;;;;;;;;5074690;28;20048;-72
2024/01/07 03:59:27;;;;;;;7.72;5.03;;;;;;;;;;5075025;28;20090;-72
2024/01/07 04:01:56;;;;;;;7.53;5.07;;;;;;;;;;5074678;28;20062;-72
2024/01/07 04:04:22;;;;;;;7.10;5.28;;;;;;;;;;5075738;28;20029;-72
2024/01/07 04:06:48;;;;;;;7.13;4.78;;;;;;;;;;5076129;28;20500;-72
2024/01/07 04:09:14;;;;;;;7.30;4.68;;;;;;;;;;5074841;28;20110;-72
2024/01/07 04:11:41;;;;;;;8.55;4.85;;;;;;;;;;5074476;28;20483;-72
2024/01/07 04:14:09;;;;;;;8.05;4.82;;;;;;;;;;5074786;28;20127;-72
2024/01/07 04:16:35;;;;;;;7.82;5.15;;;;;;;;;;5076100;28;20128;-73
2024/01/07 04:19:01;;;;;;;7.80;5.05;;;;;;;;;;5074328;28;20076;-72
2024/01/07 04:21:27;;;;;;;6.40;4.57;;;;;;;;;;5074351;28;20037;-72
2024/01/07 04:23:53;;;;;;;8.55;4.95;;;;;;;;;;5075737;28;20043;-71
2024/01/07 04:26:19;;;;;;;7.22;4.22;;;;;;;;;;5074494;28;20494;-72
2024/01/07 04:28:45;;;;;;;7.53;4.10;;;;;;;;;;5074199;28;20094;-72
2024/01/07 04:31:11;;;;;;;7.07;4.93;;;;;;;;;;5074139;28;20040;-72
2024/01/07 04:33:37;;;;;;;7.53;4.30;;;;;;;;;;5074063;28;20036;-72
2024/01/07 04:36:06;;;;;;;7.57;4.57;;;;;;;;;;5074070;28;20041;-72
2024/01/07 04:38:32;;;;;;;7.20;4.45;;;;;;;;;;5075163;28;20390;-72
2024/01/07 04:40:58;;;;;;;7.85;4.30;;;;;;;;;;5073971;28;20036;-73
2024/01/07 04:43:24;;;;;;;8.13;4.20;;;;;;;;;;5075361;28;20116;-71
2024/01/07 04:45:50;;;;;;;6.47;4.10;;;;;;;;;;5075405;28;20481;-72
2024/01/07 04:48:16;;;;;;;6.18;3.83;;;;;;;;;;5073889;28;20105;-72
2024/01/07 04:50:42;;;;;;;6.53;4.10;;;;;;;;;;5075345;28;20040;-72
2024/01/07 04:53:08;;;;;;;9.23;4.40;;;;;;;;;;5057036;28;20043;-72
2024/01/07 04:55:35;;;;;;;9.35;4.85;;;;;;;;;;5073698;28;20044;-72
2024/01/07 04:58:01;;;;;;;7.30;4.35;;;;;;;;;;5073594;28;20047;-72
2024/01/07 05:00:27;;;;;;;6.65;4.50;;;;;;;;;;5073852;28;20090;-72
2024/01/07 05:02:53;;;;;;;10.02;4.45;;;;;;;;;;5074141;28;20507;-71
2024/01/07 05:05:19;;;;;;;7.07;4.38;;;;;;;;;;5073151;28;20032;-72
2024/01/07 05:07:45;;;;;;;6.07;4.07;;;;;;;;;;5073717;28;20040;-72
2024/01/07 05:10:11;;;;;;;6.95;4.10;;;;;;;;;;5073402;28;20402;-72
2024/01/07 05:12:37;;;;;;;7.95;3.95;;;;;;;;;;5073358;28;20048;-72
2024/01/07 05:15:03;;;;;;;6.45;3.97;;;;;;;;;;5074863;28;20040;-72
2024/01/07 05:17:29;;;;;;;5.78;3.92;;;;;;;;;;5073430;28;20044;-72
2024/01/07 05:19:55;;;;;;;6.35;3.75;;;;;;;;;;5073195;28;20041;-73
2024/01/07 05:22:22;;;;;;;7.05;3.85;;;;;;;;;;5073394;28;20044;-72
2024/01/07 05:24:48;;;;;;;6.75;3.65;;;;;;;;;;5073082;28;20516;-72
2024/01/07 05:27:14;;;;;;;6.03;3.28;;;;;;;;;;5074620;28;20036;-72
2024/01/07 05:29:40;;;;;;;5.68;3.55;;;;;;;;;;5073009;28;20114;-72
2024/01/07 05:32:06;;;;;;;5.38;2.72;;;;;;;;;;5073235;28;20106;-72
2024/01/07 05:34:32;;;;;;;6.10;3.30;;;;;;;;;;5074386;28;20068;-72
2024/01/07 05:36:58;;;;;;;5.50;3.15;;;;;;;;;;5072874;28;20040;-72
2024/01/07 05:39:24;;;;;;;5.25;2.72;;;;;;;;;;5072747;28;20055;-72
2024/01/07 05:41:50;;;;;;;5.15;2.40;;;;;;;;;;5073057;28;20044;-72
2024/01/07 05:44:16;;;;;;;5.88;2.75;;;;;;;;;;5072657;28;20558;-72
2024/01/07 05:46:42;;;;;;;4.75;2.60;;;;;;;;;;5072956;28;20119;-72
2024/01/07 05:49:09;;;;;;;4.90;2.30;;;;;;;;;;5072933;28;20127;-73
2024/01/07 05:51:38;;;;;;;5.05;2.40;;;;;;;;;;5073817;28;20463;-72
2024/01/07 05:54:04;;;;;;;5.68;2.15;;;;;;;;;;5072476;28;20036;-73
2024/01/07 05:56:30;;;;;;;5.35;2.40;;;;;;;;;;5072463;28;20117;-72
2024/01/07 05:58:56;;;;;;;3.88;2.30;;;;;;;;;;5072351;28;20390;-72
2024/01/07 06:01:23;;;;;;;4.95;2.20;;;;;;;;;;5073972;28;20082;-72
2024/01/07 06:03:49;;;;;;;4.18;2.17;;;;;;;;;;5072140;28;20048;-72
2024/01/07 06:06:15;;;;;;;5.38;2.28;;;;;;;;;;5073867;28;20050;-72
2024/01/07 06:08:44;;;;;;;4.55;2.13;;;;;;;;;;5073818;28;20075;-72
2024/01/07 06:11:18;;;;;;;4.05;2.08;;;;;;;;;;5073796;28;20178;-72
2024/01/07 06:13:44;;;;;;;6.28;2.20;;;;;;;;;;5073752;28;20045;-72
2024/01/07 06:16:10;;;;;;;4.40;2.25;;;;;;;;;;5073500;28;20041;-72
2024/01/07 06:18:36;;;;;;;4.95;2.10;;;;;;;;;;5072176;28;20067;-72
2024/01/07 06:21:02;;;;;;;3.55;1.92;;;;;;;;;;5072133;28;20485;-72
2024/01/07 06:23:28;;;;;;;3.95;2.00;;;;;;;;;;5073539;28;20086;-72
2024/01/07 06:25:54;;;;;;;2.70;1.60;;;;;;;;;;5073914;28;20040;-72
2024/01/07 06:28:21;;;;;;;6.53;2.47;;;;;;;;;;5072061;28;20505;-72
2024/01/07 06:30:47;;;;;;;4.85;2.05;;;;;;;;;;5072037;28;20045;-72
2024/01/07 06:33:13;;;;;;;3.95;1.92;;;;;;;;;;5073437;28;20049;-72
2024/01/07 06:35:39;;;;;;;4.32;1.90;;;;;;;;;;5072228;28;20047;-72
2024/01/07 06:38:05;;;;;;;3.83;1.55;;;;;;;;;;5072039;28;20067;-72
2024/01/07 06:40:31;;;;;;;4.60;1.60;;;;;;;;;;5071908;28;20115;-72
2024/01/07 06:42:57;;;;;;;4.40;1.70;;;;;;;;;;5072039;28;20123;-72
2024/01/07 06:45:23;;;;;;;5.95;2.40;;;;;;;;;;5071807;28;20048;-72
2024/01/07 06:47:49;;;;;;;2.70;1.45;;;;;;;;;;5071822;28;20513;-72
2024/01/07 06:50:15;;;;;;;4.82;1.77;;;;;;;;;;5071768;28;20079;-72
2024/01/07 06:52:41;;;;;;;5.25;1.77;;;;;;;;;;5071717;28;20082;-71
2024/01/07 06:55:08;;;;;;;3.22;1.70;;;;;;;;;;5071769;28;20048;-72
2024/01/07 06:57:34;;;;;;;3.00;1.70;;;;;;;;;;5071659;28;20055;-72
2024/01/07 07:00:00;;;;;;;4.07;2.25;;;;;;;;;;5071687;28;20051;-72
2024/01/07 07:02:26;;;;;;;3.03;1.77;;;;;;;;;;5071582;28;20037;-72
2024/01/07 07:04:52;;;;;;;3.00;1.45;;;;;;;;;;5071841;28;20048;-72
2024/01/07 07:07:18;;;;;;;3.65;1.60;;;;;;;;;;5073147;28;20551;-72
2024/01/07 07:09:44;;;;;;;3.67;1.75;;;;;;;;;;5071660;28;20094;-72
2024/01/07 07:12:10;;;;;;;5.38;1.75;;;;;;;;;;5073108;28;20041;-72
2024/01/07 07:14:36;;;;;;;5.53;1.73;;;;;;;;;;5071713;28;20028;-72
2024/01/07 07:17:03;;;;;;;3.75;1.83;;;;;;;;;;5073104;28;20405;-72
2024/01/07 07:19:29;;;;;;;3.13;1.50;;;;;;;;;;5071479;28;20054;-72
2024/01/07 07:21:55;;;;;;;3.90;1.75;;;;;;;;;;5073017;28;20493;-72
2024/01/07 07:24:21;;;;;;;3.55;1.63;;;;;;;;;;5071395;28;20033;-72
2024/01/07 07:26:46;;;;;;;4.05;1.70;;;;;;;;;;5073915;28;20040;-72
2024/01/07 07:29:12;;;;;;;4.78;1.90;;;;;;;;;;5076598;28;20115;-72
2024/01/07 07:31:39;;;;;;;2.63;1.35;;;;;;;;;;5076855;28;20056;-72
2024/01/07 07:34:05;;;;;;;4.40;1.70;;;;;;;;;;5075180;28;20048;-73
2024/01/07 07:36:31;;;;;;;4.82;1.65;;;;;;;;;;5075210;28;20124;-72
2024/01/07 07:38:57;;;;;;;4.30;1.55;;;;;;;;;;5075242;28;20037;-72
2024/01/07 07:41:23;;;;;;;3.67;1.65;;;;;;;;;;5076637;28;20040;-72
2024/01/07 07:43:49;;;;;;;3.22;1.65;;;;;;;;;;5075044;28;20040;-72
2024/01/07 07:46:16;;;;;;;3.50;1.15;;;;;;;;;;5076540;28;20033;-72
2024/01/07 07:48:42;;;;;;;2.33;1.20;;;;;;;;;;5074994;28;20053;-73
2024/01/07 07:51:08;;;;;;;3.38;1.45;;;;;;;;;;5074897;28;20051;-72
2024/01/07 07:53:34;;;;;;;4.70;1.63;;;;;;;;;;5076317;28;20036;-71
2024/01/07 07:56:01;;;;;;;3.90;1.60;;;;;;;;;;5076359;28;20455;-72
2024/01/07 07:58:27;;;;;;;3.05;1.38;;;;;;;;;;5074762;28;20471;-72
2024/01/07 08:00:53;;;;;;;3.90;1.52;;;;;;;;;;5074760;28;20115;-72
2024/01/07 08:03:19;;;;;;;4.38;1.95;;;;;;;;;;5074585;28;20045;-72
2024/01/07 08:05:45;;;;;;;5.00;1.48;;;;;;;;;;5076260;28;20043;-72
2024/01/07 08:08:11;;;;;;;3.60;1.30;;;;;;;;;;5074779;28;20045;-73
2024/01/07 08:10:37;;;;;;;5.97;1.40;;;;;;;;;;5075770;28;20048;-73
2024/01/07 08:13:03;;;;;;;3.20;1.33;;;;;;;;;;5074609;28;20076;-72
2024/01/07 08:15:29;;;;;;;2.28;1.10;;;;;;;;;;5074461;28;20506;-72
2024/01/07 08:17:55;;;;;;;3.25;1.30;;;;;;;;;;5075885;28;20036;-72
2024/01/07 08:20:21;;;;;;;3.80;1.40;;;;;;;;;;5074427;28;20041;-73
2024/01/07 08:22:47;;;;;;;4.65;1.05;;;;;;;;;;5074278;28;20042;-71
2024/01/07 08:25:13;;;;;;;2.60;1.20;;;;;;;;;;5075852;28;20397;-72
2024/01/07 08:27:41;;;;;;;3.80;1.38;;;;;;;;;;5074298;28;20094;-72
2024/01/07 08:30:07;;;;;;;3.60;1.55;;;;;;;;;;5074216;28;20405;-72
2024/01/07 08:32:34;;;;;;;3.92;1.50;;;;;;;;;;5074147;28;20403;-73
2024/01/07 08:35:00;;;;;;;3.72;1.50;;;;;;;;;;5075610;28;20623;-72
2024/01/07 08:37:26;;;;;;;2.65;1.30;;;;;;;;;;5073932;28;20079;-72
2024/01/07 08:39:53;;;;;;;3.22;1.50;;;;;;;;;;5075557;28;20074;-72
2024/01/07 08:42:19;;;;;;;7.03;1.42;;;;;;;;;;5074217;28;20044;-72
2024/01/07 08:44:45;;;;;;;3.28;1.10;;;;;;;;;;5075064;28;20493;-73
2024/01/07 08:47:11;;;;;;;2.95;1.38;;;;;;;;;;5073894;28;20040;-72
2024/01/07 08:49:38;;;;;;;3.97;1.48;;;;;;;;;;5073884;28;20047;-72
2024/01/07 08:52:04;;;;;;;2.92;1.55;;;;;;;;;;5073791;28;20052;-72
2024/01/07 08:54:30;;;;;;;2.67;1.40;;;;;;;;;;5073946;28;20047;-72
2024/01/07 08:56:56;;;;;;;3.35;1.38;;;;;;;;;;5073956;28;20044;-72
2024/01/07 08:59:22;;;;;;;4.88;1.50;;;;;;;;;;5073570;28;20515;-72
2024/01/07 09:01:48;;;;;;;2.80;1.52;;;;;;;;;;5075144;28;20033;-72
2024/01/07 09:04:16;;;;;;;3.97;1.23;;;;;;;;;;5073710;28;20041;-71
2024/01/07 09:06:42;;;;;;;12.60;1.98;;;;;;;;;;5073752;28;20041;-72
2024/01/07 09:09:08;;;;;;;2.83;1.25;;;;;;;;;;5073480;28;20413;-72
2024/01/07 09:11:35;;;;;;;1.88;1.15;;;;;;;;;;5073693;28;20084;-72
2024/01/07 09:14:01;;;;;;;3.42;1.50;;;;;;;;;;5073322;28;20055;-72
2024/01/07 09:16:27;;;;;;;3.63;1.30;;;;;;;;;;5074853;28;20075;-72
2024/01/07 09:18:53;;;;;;;3.92;1.30;;;;;;;;;;5074845;28;20040;-72
2024/01/07 09:21:19;;;;;;;4.32;1.20;;;;;;;;;;5074800;28;20098;-72
2024/01/07 09:23:45;;;;;;;4.13;1.38;;;;;;;;;;5073131;28;20447;-71
2024/01/07 09:26:11;;;;;;;5.32;1.40;;;;;;;;;;5074680;28;20040;-72
2024/01/07 09:28:37;;;;;;;3.35;1.08;;;;;;;;;;5073336;28;20049;-72
2024/01/07 09:31:03;;;;;;;2.83;1.33;;;;;;;;;;5074777;28;20489;-72
2024/01/07 09:33:29;;;;;;;2.33;1.00;;;;;;;;;;5073207;28;20045;-72
2024/01/07 09:35:55;;;;;;;3.38;1.10;;;;;;;;;;5074469;28;20370;-72
2024/01/07 09:38:21;;;;;;;2.65;1.00;;;;;;;;;;5074308;28;20516;-72
2024/01/07 09:40:48;;;;;;;3.10;1.10;;;;;;;;;;5073098;28;20094;-72
2024/01/07 09:43:14;;;;;;;4.97;1.80;;;;;;;;;;5074236;28;20044;-72
2024/01/07 09:45:42;;;;;;;6.72;1.48;;;;;;;;;;5074289;28;20032;-72
2024/01/07 09:48:08;;;;;;;3.72;1.48;;;;;;;;;;5072713;28;20640;-72
2024/01/07 09:50:34;;;;;;;2.45;1.20;;;;;;;;;;5073652;28;20123;-72
2024/01/07 09:53:02;;;;;;;2.50;1.15;;;;;;;;;;5072548;28;20063;-72
2024/01/07 09:55:33;;;;;;;3.45;1.10;;;;;;;;;;5072507;28;20048;-72
2024/01/07 09:57:59;;;;;;;3.00;1.42;;;;;;;;;;5072442;28;20524;-72
2024/01/07 10:00:27;;;;;;;4.05;1.30;;;;;;;;;;5072722;28;20033;-72
2024/01/07 10:02:53;;;;;;;3.00;1.20;;;;;;;;;;5072187;28;20044;-72
2024/01/07 10:05:19;;;;;;;3.58;1.42;;;;;;;;;;5073644;28;20508;-72
2024/01/07 10:07:45;;;;;;;2.53;1.08;;;;;;;;;;5073888;28;20466;-72
2024/01/07 10:10:15;;;;;;;3.60;1.42;;;;;;;;;;5072295;28;20529;-73
2024/01/07 10:12:41;;;;;;;2.58;1.33;;;;;;;;;;5073723;28;20044;-72
2024/01/07 10:15:07;;;;;;;3.80;1.27;;;;;;;;;;5072473;28;20574;-72
2024/01/07 10:17:33;;;;;;;3.95;1.15;;;;;;;;;;5072984;28;20459;-72
2024/01/07 10:19:59;;;;;;;2.75;1.00;;;;;;;;;;5073699;28;20044;-72
2024/01/07 10:22:27;;;;;;;3.88;1.20;;;;;;;;;;5072437;28;20127;-72
2024/01/07 10:24:53;;;;;;;6.57;1.20;;;;;;;;;;5072285;28;20048;-72
2024/01/07 10:27:19;;;;;;;2.72;1.20;;;;;;;;;;5073291;28;20398;-72
2024/01/07 10:29:50;;;;;;;3.00;1.13;;;;;;;;;;5072062;28;20041;-72
2024/01/07 10:32:16;;;;;;;3.92;1.50;;;;;;;;;;5073584;28;20117;-72
2024/01/07 10:34:43;;;;;;;3.33;1.30;;;;;;;;;;5071925;28;20499;-72
2024/01/07 10:37:10;;;;;;;3.25;1.83;;;;;;;;;;5071963;28;20040;-72
2024/01/07 10:39:36;;;;;;;5.22;1.70;;;;;;;;;;5071859;28;20443;-72
2024/01/07 10:42:02;;;;;;;3.53;1.40;;;;;;;;;;5071905;28;20137;-72
2024/01/07 10:44:32;;;;;;;2.58;1.23;;;;;;;;;;5071759;28;20401;-72
2024/01/07 10:46:59;;;;;;;4.72;1.35;;;;;;;;;;5071833;28;20046;-72
2024/01/07 10:49:25;;;;;;;5.85;1.60;;;;;;;;;;5072107;28;20102;-72
2024/01/07 10:52:00;;;;;;;4.15;1.70;;;;;;;;;;5073317;28;20040;-71
2024/01/07 10:54:29;;;;;;;3.05;1.40;;;;;;;;;;5071693;28;20044;-72
2024/01/07 10:56:58;;;;;;;3.13;1.67;;;;;;;;;;5071761;28;20067;-72
2024/01/07 10:59:24;;;;;;;2.65;1.30;;;;;;;;;;5071664;28;20040;-72
2024/01/07 11:01:50;;;;;;;4.95;1.48;;;;;;;;;;5074353;28;20070;-72
2024/01/07 11:04:22;;;;;;;3.45;1.20;;;;;;;;;;5075893;28;20032;-72
2024/01/07 11:06:55;;;;;;;3.10;1.08;;;;;;;;;;5075795;28;20035;-72
2024/01/07 11:09:23;;;;;;;;;;;;;;;;;;5077695;28;20083;-72
2024/01/07 11:11:50;;;;;;;2.88;1.00;;;;;;;;;;5075757;28;20384;-73
2024/01/07 11:14:35;;;;;;;4.10;1.20;;;;;;;;;;5075658;28;20618;-72
2024/01/07 11:17:02;;;;;;;2.67;1.30;;;;;;;;;;5075617;28;20564;-72
2024/01/07 11:19:28;;;;;;;3.08;1.20;;;;;;;;;;5075555;28;20115;-72
2024/01/07 11:22:14;;;;;;;4.38;1.40;;;;;;;;;;5075580;28;20128;-72
2024/01/07 11:24:42;;;;;;;3.58;1.10;;;;;;;;;;5058612;28;20040;-72
2024/01/07 11:27:11;;;;;;;3.35;1.20;;;;;;;;;;5076629;28;20458;-71
2024/01/07 11:29:37;;;;;;;3.22;1.25;;;;;;;;;;5075389;28;20098;-72
2024/01/07 11:32:03;;;;;;;2.35;0.85;;;;;;;;;;5076554;28;20493;-72
2024/01/07 11:34:51;;;;;;;4.20;1.15;;;;;;;;;;5075271;28;20048;-72
2024/01/07 11:37:18;;;;;;;4.22;1.20;;;;;;;;;;5075202;28;20493;-72
2024/01/07 11:39:44;;;;;;;3.95;1.30;;;;;;;;;;5076720;28;20036;-72
2024/01/07 11:42:14;;;;;;;3.72;1.30;;;;;;;;;;5075391;28;20037;-72
2024/01/07 11:44:47;;;;;;;2.88;1.50;;;;;;;;;;5076508;28;20040;-72
2024/01/07 11:47:13;;;;;;;4.75;1.45;;;;;;;;;;5076313;28;20498;-72
2024/01/07 11:49:39;;;;;;;3.58;1.30;;;;;;;;;;5076520;28;20055;-72
2024/01/07 11:52:05;;;;;;;3.70;1.38;;;;;;;;;;5074913;28;20506;-72
2024/01/07 11:54:32;;;;;;;3.85;1.52;;;;;;;;;;5074856;28;20048;-72
2024/01/07 11:56:58;;;;;;;3.25;1.40;;;;;;;;;;5074838;28;20052;-72
2024/01/07 11:59:24;;;;;;;4.75;1.50;;;;;;;;;;5074811;28;20040;-73
2024/01/07 12:01:50;;;;;;;3.05;1.60;;;;;;;;;;5074755;28;20040;-73
2024/01/07 12:04:16;;;;;;;2.85;1.48;;;;;;;;;;5074479;28;20047;-72
2024/01/07 12:06:42;;;;;;;3.78;1.73;;;;;;;;;;5074936;28;20127;-72
2024/01/07 12:09:08;;;;;;;4.85;2.40;;;;;;;;;;5076149;28;20076;-73
2024/01/07 12:11:35;;;;;;;5.13;2.53;;;;;;;;;;5075795;28;20382;-73
2024/01/07 12:14:01;;;;;;;5.03;2.03;;;;;;;;;;5075523;28;20036;-72
2024/01/07 12:16:27;;;;;;;4.05;1.70;;;;;;;;;;5074484;28;20044;-72
2024/01/07 12:18:53;;;;;;;4.93;1.75;;;;;;;;;;5074396;28;20041;-72
2024/01/07 12:21:22;;;;;;;3.05;1.98;;;;;;;;;;5074432;28;20050;-72
2024/01/07 12:23:50;;;;;;;3.80;1.73;;;;;;;;;;5075853;28;20041;-72
2024/01/07 12:26:16;;;;;;;4.90;1.48;;;;;;;;;;5074599;28;20109;-72
2024/01/07 12:28:43;;;;;;;3.03;1.63;;;;;;;;;;5075822;28;20113;-72
2024/01/07 12:31:09;;;;;;;4.35;1.70;;;;;;;;;;5075738;28;20059;-72
2024/01/07 12:33:37;;;;;;;3.60;1.75;;;;;;;;;;5074166;28;20100;-72
2024/01/07 12:36:04;;;;;;;4.93;2.00;;;;;;;;;;5074302;28;20059;-72
2024/01/07 12:38:30;;;;;;;5.55;2.20;;;;;;;;;;5073999;28;20079;-72
2024/01/07 12:40:56;;;;;;;4.03;1.90;;;;;;;;;;5075571;28;20115;-72
2024/01/07 12:43:22;;;;;;;4.65;2.20;;;;;;;;;;5073916;28;20425;-72
2024/01/07 12:45:49;;;;;;;6.05;2.80;;;;;;;;;;5075489;28;20033;-72
2024/01/07 12:48:15;;;;;;;5.43;2.60;;;;;;;;;;5075121;28;20499;-73
2024/01/07 12:50:41;;;;;;;5.63;2.83;;;;;;;;;;5075414;28;20048;-73
2024/01/07 12:53:07;;;;;;;5.95;2.88;;;;;;;;;;5073789;28;20044;-73
2024/01/07 12:55:34;;;;;;;5.50;2.33;;;;;;;;;;5075293;28;20044;-72
2024/01/07 12:58:00;;;;;;;4.78;2.65;;;;;;;;;;5073655;28;20052;-72
2024/01/07 13:00:28;;;;;;;5.32;2.67;;;;;;;;;;5075209;28;20052;-73
2024/01/07 13:02:54;;;;;;;7.55;2.58;;;;;;;;;;5073436;28;20511;-72
2024/01/07 13:05:20;;;;;;;4.78;2.97;;;;;;;;;;5073719;28;20052;-72
2024/01/07 13:07:46;;;;;;;5.88;3.35;;;;;;;;;;5073533;28;20048;-72
2024/01/07 13:10:13;;;;;;;5.38;2.75;;;;;;;;;;5074678;28;20416;-72
2024/01/07 13:12:39;;;;;;;5.55;2.67;;;;;;;;;;5073471;28;20562;-72
2024/01/07 13:15:05;;;;;;;4.55;2.60;;;;;;;;;;5074983;28;20087;-72
2024/01/07 13:17:32;;;;;;;6.82;2.92;;;;;;;;;;5073562;28;20119;-73
2024/01/07 13:19:59;;;;;;;5.15;2.67;;;;;;;;;;5074813;28;20037;-73
2024/01/07 13:22:25;;;;;;;6.38;2.97;;;;;;;;;;5073317;28;20040;-73
2024/01/07 13:24:51;;;;;;;4.97;2.78;;;;;;;;;;5072290;28;20036;-72
2024/01/07 13:27:21;;;;;;;8.18;3.08;;;;;;;;;;5073187;28;20041;-72
2024/01/07 13:29:47;;;;;;;6.07;3.10;;;;;;;;;;5073149;28;20516;-73
2024/01/07 13:32:18;;;;;;;5.22;2.65;;;;;;;;;;5073327;28;20044;-73
2024/01/07 13:34:44;;;;;;;5.30;2.58;;;;;;;;;;5073007;28;20051;-72
2024/01/07 13:37:10;;;;;;;7.20;3.03;;;;;;;;;;5072931;28;20076;-72
2024/01/07 13:39:36;;;;;;;7.43;3.00;;;;;;;;;;5072919;28;20501;-71
2024/01/07 13:42:03;;;;;;;6.80;2.88;;;;;;;;;;5074406;28;20072;-73
2024/01/07 13:44:30;;;;;;;5.47;2.88;;;;;;;;;;5074244;28;20033;-74
2024/01/07 13:46:56;;;;;;;6.47;2.80;;;;;;;;;;5073024;28;20051;-74
2024/01/07 13:49:22;;;;;;;5.30;2.58;;;;;;;;;;5072724;28;20040;-74
2024/01/07 13:51:48;;;;;;;9.10;2.97;;;;;;;;;;5074243;28;20043;-74
2024/01/07 13:54:16;;;;;;;6.68;2.92;;;;;;;;;;5072497;28;20469;-74
2024/01/07 13:56:42;;;;;;;5.47;2.97;;;;;;;;;;5072540;28;20504;-74
2024/01/07 13:59:09;;;;;;;7.30;3.35;;;;;;;;;;5073998;28;20134;-74
2024/01/07 14:01:35;;;;;;;5.90;3.20;;;;;;;;;;5072734;28;20036;-74
2024/01/07 14:04:01;;;;;;;6.35;3.13;;;;;;;;;;5073595;28;20032;-74
2024/01/07 14:06:27;;;;;;;5.60;3.08;;;;;;;;;;5072380;28;20512;-73
2024/01/07 14:08:53;;;;;;;5.18;3.00;;;;;;;;;;5072815;28;20045;-73
2024/01/07 14:11:21;;;;;;;6.68;3.03;;;;;;;;;;5072380;28;20169;-73
2024/01/07 14:13:47;;;;;;;4.50;3.13;;;;;;;;;;5072278;28;20055;-73
2024/01/07 14:16:15;;;;;;;7.68;3.25;;;;;;;;;;5072449;28;20040;-73
2024/01/07 14:18:41;;;;;;;6.63;3.28;;;;;;;;;;5073846;28;20041;-73
2024/01/07 14:21:09;;;;;;;6.47;2.50;;;;;;;;;;5072293;28;20037;-73
2024/01/07 14:23:35;;;;;;;5.60;2.38;;;;;;;;;;5072520;28;20044;-73
2024/01/07 14:26:02;;;;;;;6.03;2.50;;;;;;;;;;5073056;28;20049;-73
2024/01/07 14:28:28;;;;;;;6.93;2.60;;;;;;;;;;5072504;28;20040;-73
2024/01/07 14:30:54;;;;;;;5.65;2.35;;;;;;;;;;5072157;28;20036;-73
2024/01/07 14:33:20;;;;;;;6.72;2.60;;;;;;;;;;5073592;28;20040;-73